createdAt,value
2018-03-16T00:00:48.279Z,80.29
2018-03-16T00:03:15.705Z,80.45
2018-03-16T00:05:48.483Z,81.13
2018-03-16T00:08:15.929Z,80.29
2018-03-16T00:10:44.075Z,80.08
2018-03-16T00:13:11.548Z,81.18
2018-03-16T00:15:40.333Z,80.33
2018-03-16T00:18:08.303Z,79.97
2018-03-16T00:20:36.053Z,79.89
2018-03-16T00:23:03.744Z,79.91
2018-03-16T00:25:31.554Z,80.06
2018-03-16T00:27:59.176Z,80.05
2018-03-16T00:30:26.613Z,79.77
2018-03-16T00:32:55.053Z,78.57
2018-03-16T00:35:22.459Z,79.05
2018-03-16T00:37:49.899Z,80.42
2018-03-16T00:40:17.296Z,79.62
2018-03-16T00:42:44.992Z,80.27
2018-03-16T00:45:13.695Z,79.51
2018-03-16T00:47:41.433Z,79.05
2018-03-16T00:50:08.997Z,77.77
2018-03-16T00:52:36.526Z,78.46
2018-03-16T00:55:04.157Z,79.31
2018-03-16T00:57:31.568Z,79.54
2018-03-16T00:59:59.025Z,78.87
2018-03-16T01:02:26.369Z,77.27
2018-03-16T01:04:53.748Z,78.52
2018-03-16T01:07:21.166Z,79.15
2018-03-16T01:09:48.571Z,78.58
2018-03-16T01:12:16.022Z,78.93
2018-03-16T01:14:43.417Z,79.22
2018-03-16T01:17:10.844Z,79.14
2018-03-16T01:19:38.932Z,77.85
2018-03-16T01:22:06.312Z,78.03
2018-03-16T01:24:33.753Z,77.37
2018-03-16T01:27:02.116Z,77.35
2018-03-16T01:29:29.517Z,77.91
2018-03-16T01:31:56.929Z,78.05
2018-03-16T01:34:24.425Z,77.38
2018-03-16T01:36:51.842Z,77.76
2018-03-16T01:39:19.315Z,76.67
2018-03-16T01:41:47.477Z,76.24
2018-03-16T01:44:14.867Z,77.29
2018-03-16T01:46:42.318Z,76.85
2018-03-16T01:49:09.728Z,77.04
2018-03-16T01:51:37.116Z,77.05
2018-03-16T01:54:04.582Z,77.54
2018-03-16T01:56:31.968Z,77.28
2018-03-16T01:58:59.368Z,76.43
2018-03-16T02:01:26.749Z,76.34
2018-03-16T02:03:54.184Z,77.40
2018-03-16T02:06:21.571Z,77.55
2018-03-16T02:08:49.041Z,76.98
2018-03-16T02:11:16.433Z,77.42
2018-03-16T02:13:44.283Z,76.90
2018-03-16T02:16:11.660Z,76.97
2018-03-16T02:18:41.131Z,77.18
2018-03-16T02:21:08.548Z,76.84
2018-03-16T02:23:35.956Z,77.13
2018-03-16T02:26:04.386Z,77.19
2018-03-16T02:28:31.923Z,76.48
2018-03-16T02:30:59.327Z,76.68
2018-03-16T02:33:26.732Z,77.47
2018-03-16T02:35:54.300Z,77.75
2018-03-16T02:38:21.854Z,77.22
2018-03-16T02:40:49.402Z,75.97
2018-03-16T02:43:16.913Z,76.80
2018-03-16T02:45:44.498Z,76.19
2018-03-16T02:48:11.988Z,76.52
2018-03-16T02:50:39.440Z,76.23
2018-03-16T02:53:07.642Z,76.65
2018-03-16T02:55:36.051Z,75.89
2018-03-16T02:58:03.505Z,76.51
2018-03-16T03:00:31.349Z,76.60
2018-03-16T03:02:58.763Z,75.49
2018-03-16T03:05:26.174Z,76.50
2018-03-16T03:07:53.577Z,76.77
2018-03-16T03:10:20.988Z,77.50
2018-03-16T03:12:48.434Z,77.42
2018-03-16T03:15:15.836Z,77.36
2018-03-16T03:17:43.359Z,77.03
2018-03-16T03:20:10.824Z,76.84
2018-03-16T03:22:38.228Z,76.47
2018-03-16T03:25:06.188Z,76.28
2018-03-16T03:27:33.592Z,76.63
2018-03-16T03:30:00.990Z,75.93
2018-03-16T03:32:28.424Z,77.56
2018-03-16T03:34:59.600Z,77.57
2018-03-16T03:37:27.102Z,76.99
2018-03-16T03:39:54.536Z,77.99
2018-03-16T03:42:22.017Z,77.58
2018-03-16T03:44:49.491Z,78.61
2018-03-16T03:47:16.883Z,79.82
2018-03-16T03:49:44.360Z,78.06
2018-03-16T03:52:11.816Z,78.84
2018-03-16T03:54:39.222Z,79.52
2018-03-16T03:57:06.608Z,78.33
2018-03-16T03:59:34.185Z,78.63
2018-03-16T04:02:01.630Z,78.62
2018-03-16T04:04:29.052Z,77.69
2018-03-16T04:06:56.452Z,77.59
2018-03-16T04:09:23.859Z,77.48
2018-03-16T04:11:51.278Z,77.75
2018-03-16T04:14:18.672Z,77.65
2018-03-16T04:16:46.188Z,78.53
2018-03-16T04:19:13.579Z,78.21
2018-03-16T04:21:40.977Z,78.18
2018-03-16T04:24:08.363Z,77.75
2018-03-16T04:26:36.460Z,78.52
2018-03-16T04:29:04.026Z,79.31
2018-03-16T04:31:31.510Z,78.70
2018-03-16T04:33:58.994Z,78.32
2018-03-16T04:36:26.622Z,78.04
2018-03-16T04:38:54.202Z,78.58
2018-03-16T04:41:21.607Z,78.20
2018-03-16T04:43:49.330Z,78.57
2018-03-16T04:46:16.762Z,79.67
2018-03-16T04:48:44.276Z,79.32
2018-03-16T04:51:11.708Z,79.19
2018-03-16T04:53:39.125Z,78.94
2018-03-16T04:56:06.715Z,78.57
2018-03-16T04:58:34.162Z,79.29
2018-03-16T05:01:01.671Z,78.55
2018-03-16T05:03:29.092Z,78.39
2018-03-16T05:05:56.684Z,78.29
2018-03-16T05:08:24.061Z,77.61
2018-03-16T05:10:51.444Z,78.61
2018-03-16T05:13:18.875Z,78.11
2018-03-16T05:15:46.650Z,77.59
2018-03-16T05:18:14.156Z,78.35
2018-03-16T05:20:41.547Z,78.37
2018-03-16T05:23:08.990Z,78.51
2018-03-16T05:25:37.654Z,78.45
2018-03-16T05:28:05.080Z,78.43
2018-03-16T05:30:32.519Z,78.54
2018-03-16T05:32:59.890Z,78.38
2018-03-16T05:35:27.295Z,77.86
2018-03-16T05:37:54.705Z,77.22
2018-03-16T05:40:22.122Z,77.62
2018-03-16T05:42:49.574Z,77.26
2018-03-16T05:45:16.984Z,77.52
2018-03-16T05:47:44.398Z,77.08
2018-03-16T05:50:11.816Z,77.57
2018-03-16T05:52:39.314Z,78.13
2018-03-16T05:55:10.598Z,78.56
2018-03-16T05:57:38.030Z,78.04
2018-03-16T06:00:05.419Z,78.33
2018-03-16T06:02:32.845Z,79.24
2018-03-16T06:05:00.301Z,79.30
2018-03-16T06:07:27.718Z,78.80
2018-03-16T06:09:55.150Z,79.12
2018-03-16T06:12:22.550Z,79.01
2018-03-16T06:14:49.942Z,79.98
2018-03-16T06:17:17.349Z,79.62
2018-03-16T06:19:45.067Z,82.16
2018-03-16T06:22:12.911Z,81.62
2018-03-16T06:24:40.336Z,80.57
2018-03-16T06:27:07.720Z,81.74
2018-03-16T06:29:35.123Z,81.57
2018-03-16T06:32:02.512Z,82.05
2018-03-16T06:34:29.919Z,81.52
2018-03-16T06:36:57.354Z,82.01
2018-03-16T06:39:24.774Z,81.57
2018-03-16T06:41:52.160Z,81.88
2018-03-16T06:44:19.565Z,81.47
2018-03-16T06:46:46.998Z,81.47
2018-03-16T06:49:14.396Z,82.15
2018-03-16T06:51:42.694Z,80.94
2018-03-16T06:54:10.294Z,81.50
2018-03-16T06:56:37.671Z,82.16
2018-03-16T06:59:05.070Z,82.37
2018-03-16T07:01:32.459Z,81.64
2018-03-16T07:03:59.871Z,81.55
2018-03-16T07:06:27.261Z,82.59
2018-03-16T07:08:54.667Z,83.40
2018-03-16T07:11:22.072Z,82.35
2018-03-16T07:13:49.479Z,81.60
2018-03-16T07:16:16.869Z,82.24
2018-03-16T07:18:44.281Z,82.79
2018-03-16T07:21:11.678Z,81.75
2018-03-16T07:23:39.152Z,82.13
2018-03-16T07:26:07.637Z,82.92
2018-03-16T07:28:35.030Z,81.91
2018-03-16T07:31:03.482Z,82.45
2018-03-16T07:33:30.876Z,82.32
2018-03-16T07:35:58.327Z,82.36
2018-03-16T07:38:25.809Z,81.23
2018-03-16T07:40:53.205Z,80.91
2018-03-16T07:43:20.594Z,80.82
2018-03-16T07:45:53.594Z,81.75
2018-03-16T07:48:21.021Z,81.53
2018-03-16T07:50:48.417Z,82.01
2018-03-16T07:53:15.814Z,81.37
2018-03-16T07:55:43.265Z,81.28
2018-03-16T07:58:10.679Z,82.18
2018-03-16T08:00:38.058Z,83.17
2018-03-16T08:03:05.667Z,83.02
2018-03-16T08:05:33.063Z,81.98
2018-03-16T08:08:00.483Z,82.64
2018-03-16T08:10:27.958Z,82.88
2018-03-16T08:12:55.405Z,82.06
2018-03-16T08:15:22.817Z,82.37
2018-03-16T08:17:50.221Z,82.78
2018-03-16T08:20:17.599Z,82.61
2018-03-16T08:22:45.005Z,82.38
2018-03-16T08:25:12.416Z,82.63
2018-03-16T08:27:40.490Z,81.88
2018-03-16T08:30:07.948Z,82.82
2018-03-16T08:32:35.361Z,81.81
2018-03-16T08:35:02.752Z,81.74
2018-03-16T08:37:30.176Z,81.97
2018-03-16T08:39:57.587Z,82.32
2018-03-16T08:42:25.025Z,80.79
2018-03-16T08:44:52.458Z,80.96
2018-03-16T08:47:19.844Z,82.07
2018-03-16T08:49:47.282Z,80.95
2018-03-16T08:52:14.646Z,81.86
2018-03-16T08:54:42.050Z,82.02
2018-03-16T08:57:09.455Z,81.25
2018-03-16T08:59:37.103Z,81.08
2018-03-16T09:02:04.491Z,80.98
2018-03-16T09:04:31.917Z,80.47
2018-03-16T09:06:59.304Z,80.73
2018-03-16T09:09:26.907Z,81.17
2018-03-16T09:11:54.306Z,81.11
2018-03-16T09:14:21.750Z,80.91
2018-03-16T09:16:49.225Z,81.26
2018-03-16T09:19:16.622Z,81.00
2018-03-16T09:21:44.025Z,80.58
2018-03-16T09:24:11.465Z,80.93
2018-03-16T09:26:38.868Z,80.73
2018-03-16T09:29:06.288Z,80.66
2018-03-16T09:31:33.682Z,80.85
2018-03-16T09:34:01.551Z,81.23
2018-03-16T09:36:28.953Z,82.12
2018-03-16T09:38:56.361Z,80.37
2018-03-16T09:41:23.767Z,80.56
2018-03-16T09:43:51.225Z,80.86
2018-03-16T09:46:18.604Z,80.17
2018-03-16T09:48:46.039Z,79.83
2018-03-16T09:51:13.441Z,79.74
2018-03-16T09:53:40.977Z,80.94
2018-03-16T09:56:08.369Z,80.56
2018-03-16T09:58:35.754Z,79.35
2018-03-16T10:01:03.288Z,79.64
2018-03-16T10:03:30.737Z,78.72
2018-03-16T10:05:58.156Z,79.30
2018-03-16T10:08:25.560Z,79.14
2018-03-16T10:10:52.961Z,80.07
2018-03-16T10:13:20.374Z,79.14
2018-03-16T10:15:48.256Z,78.18
2018-03-16T10:18:15.668Z,78.62
2018-03-16T10:20:43.141Z,77.78
2018-03-16T10:23:10.545Z,77.02
2018-03-16T10:25:38.489Z,77.85
2018-03-16T10:28:05.863Z,78.91
2018-03-16T10:30:33.262Z,77.09
2018-03-16T10:33:00.662Z,77.90
2018-03-16T10:35:28.069Z,78.07
2018-03-16T10:37:55.451Z,78.45
2018-03-16T10:40:22.837Z,78.35
2018-03-16T10:42:50.289Z,78.73
2018-03-16T10:45:17.654Z,78.21
2018-03-16T10:47:45.060Z,78.34
2018-03-16T10:50:12.686Z,78.02
2018-03-16T10:52:40.220Z,78.47
2018-03-16T10:55:08.592Z,78.35
2018-03-16T10:57:36.023Z,78.80
2018-03-16T11:00:03.480Z,78.16
2018-03-16T11:02:36.545Z,78.16
2018-03-16T11:05:09.789Z,78.28
2018-03-16T11:07:47.093Z,77.69
2018-03-16T11:10:14.485Z,76.48
2018-03-16T11:12:41.900Z,77.56
2018-03-16T11:15:09.651Z,77.55
2018-03-16T11:17:37.061Z,76.85
2018-03-16T11:20:04.440Z,76.66
2018-03-16T11:22:31.835Z,77.38
2018-03-16T11:24:59.233Z,76.10
2018-03-16T11:27:26.696Z,76.01
2018-03-16T11:29:54.070Z,75.60
2018-03-16T11:32:21.578Z,76.92
2018-03-16T11:34:49.031Z,76.52
2018-03-16T11:37:16.581Z,76.36
2018-03-16T11:39:43.975Z,76.29
2018-03-16T11:42:11.377Z,75.93
2018-03-16T11:44:38.860Z,77.42
2018-03-16T11:47:06.309Z,76.71
2018-03-16T11:49:34.109Z,75.51
2018-03-16T11:52:01.581Z,75.65
2018-03-16T11:54:28.954Z,75.72
2018-03-16T11:56:56.374Z,76.06
2018-03-16T11:59:23.765Z,77.00
2018-03-16T12:01:51.349Z,76.17
2018-03-16T12:04:18.770Z,76.10
2018-03-16T12:06:46.169Z,75.37
2018-03-16T12:09:13.577Z,76.27
2018-03-16T12:11:40.977Z,77.16
2018-03-16T12:14:09.146Z,78.55
2018-03-16T12:16:36.612Z,78.46
2018-03-16T12:19:05.034Z,77.65
2018-03-16T12:21:32.527Z,77.86
2018-03-16T12:24:00.059Z,76.90
2018-03-16T12:26:28.061Z,75.35
2018-03-16T12:28:57.206Z,76.42
2018-03-16T12:31:25.088Z,75.97
2018-03-16T12:33:52.819Z,76.71
2018-03-16T12:36:20.217Z,76.12
2018-03-16T12:38:47.653Z,74.58
2018-03-16T12:41:15.041Z,76.01
2018-03-16T12:43:42.445Z,76.45
2018-03-16T12:46:09.954Z,75.60
2018-03-16T12:48:37.361Z,75.07
2018-03-16T12:51:04.752Z,76.42
2018-03-16T12:53:32.250Z,77.26
2018-03-16T12:55:59.635Z,77.33
2018-03-16T12:58:27.093Z,77.48
2018-03-16T13:00:54.710Z,77.80
2018-03-16T13:03:22.129Z,77.75
2018-03-16T13:05:49.685Z,77.03
2018-03-16T13:08:17.085Z,76.81
2018-03-16T13:10:44.478Z,75.39
2018-03-16T13:13:11.856Z,74.29
2018-03-16T13:15:39.289Z,75.40
2018-03-16T13:18:06.661Z,74.08
2018-03-16T13:20:34.095Z,74.87
2018-03-16T13:23:01.859Z,75.43
2018-03-16T13:25:29.270Z,75.82
2018-03-16T13:27:56.685Z,74.97
2018-03-16T13:30:24.110Z,74.60
2018-03-16T13:32:51.614Z,73.78
2018-03-16T13:35:19.005Z,75.30
2018-03-16T13:37:46.457Z,76.12
2018-03-16T13:40:13.913Z,75.99
2018-03-16T13:42:41.308Z,75.75
2018-03-16T13:45:09.461Z,76.43
2018-03-16T13:47:36.871Z,76.23
2018-03-16T13:50:04.278Z,75.16
2018-03-16T13:52:31.669Z,73.90
2018-03-16T13:55:05.766Z,73.76
2018-03-16T13:57:33.170Z,73.54
2018-03-16T14:00:00.589Z,73.79
2018-03-16T14:02:28.027Z,73.08
2018-03-16T14:04:55.370Z,74.12
2018-03-16T14:07:22.761Z,73.63
2018-03-16T14:09:51.611Z,74.94
2018-03-16T14:12:19.003Z,74.66
2018-03-16T14:14:50.125Z,74.07
2018-03-16T14:17:19.085Z,73.90
2018-03-16T14:19:46.559Z,73.02
2018-03-16T14:22:14.032Z,72.90
2018-03-16T14:24:43.685Z,72.30
2018-03-16T14:27:12.219Z,73.69
2018-03-16T14:29:39.810Z,73.21
2018-03-16T14:32:07.919Z,73.35
2018-03-16T14:34:37.101Z,74.95
2018-03-16T14:37:04.990Z,75.28
2018-03-16T14:39:38.300Z,75.62
2018-03-16T14:42:06.578Z,76.28
2018-03-16T14:44:33.956Z,74.93
2018-03-16T14:47:01.495Z,80.18
2018-03-16T14:49:28.859Z,88.35
2018-03-16T14:51:56.276Z,88.48
2018-03-16T14:54:23.678Z,89.09
2018-03-16T14:56:51.061Z,89.70
2018-03-16T14:59:18.450Z,90.64
2018-03-16T15:01:45.891Z,91.76
2018-03-16T15:04:13.258Z,91.19
2018-03-16T15:06:40.621Z,92.53
2018-03-16T15:09:08.009Z,94.43
2018-03-16T15:11:35.399Z,92.83
2018-03-16T15:14:02.784Z,93.83
2018-03-16T15:16:30.179Z,94.43
2018-03-16T15:18:57.589Z,91.87
2018-03-16T15:21:25.005Z,91.78
2018-03-16T15:23:52.384Z,91.73
2018-03-16T15:26:19.789Z,92.15
2018-03-16T15:28:47.197Z,92.01
2018-03-16T15:31:14.585Z,92.31
2018-03-16T15:33:42.017Z,94.15
2018-03-16T15:36:10.181Z,93.57
2018-03-16T15:38:37.657Z,92.21
2018-03-16T15:41:05.039Z,93.73
2018-03-16T15:43:33.936Z,91.00
2018-03-16T15:46:01.336Z,90.95
2018-03-16T15:48:28.735Z,91.19
2018-03-16T15:50:56.097Z,89.78
2018-03-16T15:53:23.501Z,90.40
2018-03-16T15:55:50.958Z,89.98
2018-03-16T15:58:18.357Z,89.92
2018-03-16T16:00:45.745Z,90.86
2018-03-16T16:03:13.142Z,89.25
2018-03-16T16:05:40.570Z,90.69
2018-03-16T16:08:08.108Z,89.96
2018-03-16T16:10:35.497Z,90.71
2018-03-16T16:13:02.870Z,89.31
2018-03-16T16:15:30.252Z,89.82
2018-03-16T16:17:58.024Z,89.47
2018-03-16T16:20:25.442Z,90.24
2018-03-16T16:22:53.037Z,90.02
2018-03-16T16:25:20.550Z,89.68
2018-03-16T16:27:48.004Z,88.75
2018-03-16T16:30:15.486Z,88.47
2018-03-16T16:32:43.458Z,87.14
2018-03-16T16:35:10.853Z,83.04
2018-03-16T16:37:38.235Z,83.94
2018-03-16T16:40:05.659Z,79.61
2018-03-16T16:42:33.062Z,83.37
2018-03-16T16:45:00.501Z,83.02
2018-03-16T16:47:27.940Z,85.36
2018-03-16T16:49:55.333Z,86.55
2018-03-16T16:52:22.731Z,86.35
2018-03-16T16:54:50.228Z,88.44
2018-03-16T16:57:17.617Z,87.05
2018-03-16T16:59:45.066Z,86.65
2018-03-16T17:02:12.452Z,88.88
2018-03-16T17:04:40.501Z,87.06
2018-03-16T17:07:07.925Z,89.21
2018-03-16T17:09:35.625Z,87.00
2018-03-16T17:12:03.041Z,87.99
2018-03-16T17:14:30.427Z,89.19
2018-03-16T17:16:57.901Z,87.37
2018-03-16T17:19:25.273Z,87.83
2018-03-16T17:21:52.659Z,84.58
2018-03-16T17:24:20.046Z,86.78
2018-03-16T17:26:47.448Z,85.48
2018-03-16T17:29:14.842Z,86.13
2018-03-16T17:31:42.280Z,85.45
2018-03-16T17:34:10.754Z,85.96
2018-03-16T17:36:38.177Z,86.82
2018-03-16T17:39:05.652Z,86.20
2018-03-16T17:41:33.045Z,86.55
2018-03-16T17:44:00.437Z,83.62
2018-03-16T17:46:27.821Z,84.29
2018-03-16T17:48:55.224Z,83.96
2018-03-16T17:51:22.640Z,83.35
2018-03-16T17:53:50.041Z,85.93
2018-03-16T17:56:17.602Z,83.74
2018-03-16T17:58:45.005Z,83.53
2018-03-16T18:01:12.421Z,82.83
2018-03-16T18:03:40.867Z,83.21
2018-03-16T18:06:08.301Z,82.45
2018-03-16T18:08:35.757Z,82.01
2018-03-16T18:11:03.196Z,81.08
2018-03-16T18:13:30.617Z,82.25
2018-03-16T18:15:58.010Z,80.80
2018-03-16T18:18:25.399Z,82.28
2018-03-16T18:20:52.810Z,83.69
2018-03-16T18:23:20.369Z,83.37
2018-03-16T18:25:47.937Z,81.31
2018-03-16T18:28:15.324Z,81.99
2018-03-16T18:30:42.713Z,83.71
2018-03-16T18:33:11.044Z,82.68
2018-03-16T18:35:38.442Z,81.80
2018-03-16T18:38:05.834Z,84.62
2018-03-16T18:40:33.230Z,83.35
2018-03-16T18:43:00.639Z,82.93
2018-03-16T18:45:28.113Z,82.37
2018-03-16T18:47:55.496Z,80.52
2018-03-16T18:50:22.889Z,80.79
2018-03-16T18:52:50.294Z,80.86
2018-03-16T18:55:18.818Z,80.15
2018-03-16T18:57:46.248Z,79.69
2018-03-16T19:00:13.601Z,81.52
2018-03-16T19:02:41.190Z,80.79
2018-03-16T19:05:08.737Z,79.82
2018-03-16T19:07:36.137Z,79.30
2018-03-16T19:10:03.518Z,80.23
2018-03-16T19:12:30.921Z,83.26
2018-03-16T19:14:58.355Z,83.54
2018-03-16T19:17:25.848Z,82.78
2018-03-16T19:19:53.236Z,80.04
2018-03-16T19:22:20.649Z,81.80
2018-03-16T19:24:48.085Z,82.35
2018-03-16T19:27:15.526Z,79.98
2018-03-16T19:29:42.900Z,78.61
2018-03-16T19:32:10.319Z,80.14
2018-03-16T19:34:37.696Z,79.09
2018-03-16T19:37:05.115Z,79.84
2018-03-16T19:39:32.680Z,82.65
2018-03-16T19:42:00.103Z,79.99
2018-03-16T19:44:27.500Z,78.86
2018-03-16T19:46:55.483Z,81.50
2018-03-16T19:49:22.887Z,80.38
2018-03-16T19:51:50.278Z,78.37
2018-03-16T19:54:17.675Z,79.68
2018-03-16T19:56:45.064Z,79.65
2018-03-16T19:59:12.464Z,78.58
2018-03-16T20:01:39.868Z,79.61
2018-03-16T20:04:07.287Z,80.04
2018-03-16T20:06:34.658Z,77.60
2018-03-16T20:09:02.065Z,77.12
2018-03-16T20:11:29.473Z,81.58
2018-03-16T20:13:56.881Z,78.44
2018-03-16T20:16:24.274Z,78.17
2018-03-16T20:18:51.687Z,80.29
2018-03-16T20:21:19.092Z,79.99
2018-03-16T20:23:46.520Z,81.13
2018-03-16T20:26:13.922Z,80.74
2018-03-16T20:28:41.694Z,79.26
2018-03-16T20:31:09.089Z,82.60
2018-03-16T20:33:36.474Z,82.04
2018-03-16T20:36:03.897Z,81.49
2018-03-16T20:38:31.293Z,80.51
2018-03-16T20:40:58.693Z,78.61
2018-03-16T20:43:26.073Z,79.80
2018-03-16T20:45:53.575Z,79.49
2018-03-16T20:48:22.077Z,80.91
2018-03-16T20:50:49.470Z,80.18
2018-03-16T20:53:16.865Z,78.37
2018-03-16T20:55:44.252Z,77.90
2018-03-16T20:58:11.822Z,76.82
2018-03-16T21:00:39.285Z,79.38
2018-03-16T21:03:06.679Z,79.17
2018-03-16T21:05:34.077Z,78.38
2018-03-16T21:08:02.028Z,78.66
2018-03-16T21:10:29.437Z,77.14
2018-03-16T21:12:56.849Z,77.31
2018-03-16T21:15:24.254Z,76.70
2018-03-16T21:17:51.646Z,81.09
2018-03-16T21:20:19.084Z,79.03
2018-03-16T21:22:46.427Z,78.01
2018-03-16T21:25:13.915Z,78.11
2018-03-16T21:27:42.017Z,75.77
2018-03-16T21:30:09.402Z,76.84
2018-03-16T21:32:36.821Z,77.77
2018-03-16T21:35:04.217Z,75.96
2018-03-16T21:37:31.625Z,77.50
2018-03-16T21:39:59.008Z,76.39
2018-03-16T21:42:26.429Z,74.95
2018-03-16T21:44:53.941Z,74.14
2018-03-16T21:47:21.333Z,74.33
2018-03-16T21:49:48.722Z,74.47
2018-03-16T21:52:16.104Z,77.48
2018-03-16T21:54:43.517Z,73.66
2018-03-16T21:57:10.924Z,76.45
2018-03-16T21:59:38.313Z,76.42
2018-03-16T22:02:05.699Z,75.19
2018-03-16T22:04:33.144Z,73.24
2018-03-16T22:07:00.556Z,73.53
2018-03-16T22:09:27.980Z,73.53
2018-03-16T22:11:55.381Z,75.32
2018-03-16T22:14:22.862Z,72.86
2018-03-16T22:16:50.252Z,72.93
2018-03-16T22:19:17.641Z,72.42
2018-03-16T22:21:45.035Z,75.02
2018-03-16T22:24:13.196Z,74.16
2018-03-16T22:26:40.595Z,72.55
2018-03-16T22:29:08.045Z,72.50
2018-03-16T22:31:35.604Z,72.62
2018-03-16T22:34:02.980Z,74.76
2018-03-16T22:36:30.381Z,73.04
2018-03-16T22:38:57.767Z,72.21
2018-03-16T22:41:25.189Z,72.83
2018-03-16T22:43:52.622Z,71.65
2018-03-16T22:46:20.005Z,72.77
2018-03-16T22:48:47.392Z,73.24
2018-03-16T22:51:14.930Z,72.30
2018-03-16T22:53:43.277Z,71.83
2018-03-16T22:56:10.684Z,71.82
2018-03-16T22:58:38.054Z,71.68
2018-03-16T23:01:05.466Z,74.05
2018-03-16T23:03:32.934Z,71.54
2018-03-16T23:06:00.362Z,72.51
2018-03-16T23:08:27.781Z,72.49
2018-03-16T23:10:55.173Z,71.64
2018-03-16T23:13:22.648Z,72.58
2018-03-16T23:15:50.041Z,71.50
2018-03-16T23:18:17.480Z,74.69
2018-03-16T23:20:44.849Z,71.80
2018-03-16T23:23:12.570Z,71.36
2018-03-16T23:25:39.960Z,70.63
2018-03-16T23:28:07.350Z,74.30
2018-03-16T23:30:34.803Z,71.09
2018-03-16T23:33:02.221Z,73.14
2018-03-16T23:35:29.615Z,72.49
2018-03-16T23:37:57.022Z,71.65
2018-03-16T23:40:24.401Z,71.55
2018-03-16T23:42:51.849Z,70.96
2018-03-16T23:45:19.302Z,73.33
2018-03-16T23:47:46.692Z,71.87
2018-03-16T23:50:14.096Z,72.27
2018-03-16T23:52:43.342Z,71.74
2018-03-16T23:55:10.752Z,71.49
2018-03-16T23:57:38.135Z,72.43
